sensor_id;sensor_type;location;lat;lon;timestamp;pressure;altitude;pressure_sealevel;temperature;humidity
44675;BME280;30388;52.038;-1.478;2023-03-24T00:00:12;65311.26;;;6.05;100.00
44675;BME280;30388;52.038;-1.478;2023-03-24T00:02:41;65309.66;;;6.04;100.00
44675;BME280;30388;52.038;-1.478;2023-03-24T00:05:09;65236.71;;;5.11;100.00
44675;BME280;30388;52.038;-1.478;2023-03-24T00:07:37;65207.94;;;4.97;100.00
44675;BME280;30388;52.038;-1.478;2023-03-24T00:10:07;65280.50;;;5.88;100.00
44675;BME280;30388;52.038;-1.478;2023-03-24T00:12:35;65312.80;;;6.07;100.00
44675;BME280;30388;52.038;-1.478;2023-03-24T00:15:02;65219.44;;;5.38;100.00
44675;BME280;30388;52.038;-1.478;2023-03-24T00:17:31;65250.32;;;5.76;100.00
44675;BME280;30388;52.038;-1.478;2023-03-24T00:20:01;65283.26;;;5.92;100.00
44675;BME280;30388;52.038;-1.478;2023-03-24T00:22:28;65316.73;;;6.12;100.00
44675;BME280;30388;52.038;-1.478;2023-03-24T00:24:55;65243.97;;;5.68;100.00
44675;BME280;30388;52.038;-1.478;2023-03-24T00:27:22;65269.21;;;5.52;100.00
44675;BME280;30388;52.038;-1.478;2023-03-24T00:29:50;65307.90;;;6.01;100.00
44675;BME280;30388;52.038;-1.478;2023-03-24T00:32:17;65190.35;;;5.01;100.00
44675;BME280;30388;52.038;-1.478;2023-03-24T00:34:44;65224.33;;;5.18;100.00
44675;BME280;30388;52.038;-1.478;2023-03-24T00:37:11;65277.75;;;5.63;100.00
44675;BME280;30388;52.038;-1.478;2023-03-24T00:39:40;65240.94;;;6.10;100.00
44675;BME280;30388;52.038;-1.478;2023-03-24T00:42:08;65234.18;;;5.56;100.00
44675;BME280;30388;52.038;-1.478;2023-03-24T00:44:35;65180.55;;;5.10;100.00
44675;BME280;30388;52.038;-1.478;2023-03-24T00:47:02;65216.37;;;5.33;100.00
44675;BME280;30388;52.038;-1.478;2023-03-24T00:49:30;65155.53;;;4.56;100.00
44675;BME280;30388;52.038;-1.478;2023-03-24T00:51:57;65208.57;;;5.24;100.00
44675;BME280;30388;52.038;-1.478;2023-03-24T00:54:25;65178.49;;;5.08;100.00
44675;BME280;30388;52.038;-1.478;2023-03-24T00:56:52;65199.55;;;5.12;100.00
44675;BME280;30388;52.038;-1.478;2023-03-24T00:59:19;65193.81;;;5.06;100.00
44675;BME280;30388;52.038;-1.478;2023-03-24T01:01:47;65154.29;;;4.77;100.00
44675;BME280;30388;52.038;-1.478;2023-03-24T01:04:14;65183.18;;;5.36;100.00
44675;BME280;30388;52.038;-1.478;2023-03-24T01:06:41;65246.23;;;5.45;100.00
44675;BME280;30388;52.038;-1.478;2023-03-24T01:09:08;65154.04;;;4.76;100.00
44675;BME280;30388;52.038;-1.478;2023-03-24T01:11:38;65118.90;;;4.32;100.00
44675;BME280;30388;52.038;-1.478;2023-03-24T01:14:06;65181.72;;;4.89;100.00
44675;BME280;30388;52.038;-1.478;2023-03-24T01:16:34;65223.94;;;5.65;100.00
44675;BME280;30388;52.038;-1.478;2023-03-24T01:19:01;65145.87;;;4.88;100.00
44675;BME280;30388;52.038;-1.478;2023-03-24T01:21:28;65170.57;;;4.97;100.00
44675;BME280;30388;52.038;-1.478;2023-03-24T01:23:55;65194.67;;;5.07;100.00
44675;BME280;30388;52.038;-1.478;2023-03-24T01:26:23;65134.72;;;4.74;100.00
44675;BME280;30388;52.038;-1.478;2023-03-24T01:28:51;65166.19;;;4.92;100.00
44675;BME280;30388;52.038;-1.478;2023-03-24T01:31:18;65194.07;;;5.27;100.00
44675;BME280;30388;52.038;-1.478;2023-03-24T01:33:46;65207.75;;;5.22;100.00
44675;BME280;30388;52.038;-1.478;2023-03-24T01:36:14;65169.33;;;4.74;100.00
44675;BME280;30388;52.038;-1.478;2023-03-24T01:38:41;65202.01;;;5.15;100.00
44675;BME280;30388;52.038;-1.478;2023-03-24T01:41:08;65193.81;;;5.06;100.00
44675;BME280;30388;52.038;-1.478;2023-03-24T01:43:35;65107.86;;;4.41;100.00
44675;BME280;30388;52.038;-1.478;2023-03-24T01:46:13;65171.96;;;5.22;100.00
44675;BME280;30388;52.038;-1.478;2023-03-24T01:48:44;65142.95;;;4.85;100.00
44675;BME280;30388;52.038;-1.478;2023-03-24T01:51:20;65171.30;;;4.76;100.00
44675;BME280;30388;52.038;-1.478;2023-03-24T01:53:52;65125.51;;;4.62;100.00
44675;BME280;30388;52.038;-1.478;2023-03-24T01:56:21;65150.67;;;4.95;100.00
44675;BME280;30388;52.038;-1.478;2023-03-24T01:58:54;65168.11;;;4.72;100.00
44675;BME280;30388;52.038;-1.478;2023-03-24T02:01:22;65149.13;;;4.70;100.00
44675;BME280;30388;52.038;-1.478;2023-03-24T02:03:49;65151.67;;;4.74;100.00
44675;BME280;30388;52.038;-1.478;2023-03-24T02:06:18;65157.72;;;4.58;100.00
44675;BME280;30388;52.038;-1.478;2023-03-24T02:08:49;65165.24;;;4.91;100.00
44675;BME280;30388;52.038;-1.478;2023-03-24T02:11:18;65238.47;;;5.62;100.00
44675;BME280;30388;52.038;-1.478;2023-03-24T02:13:46;65141.96;;;4.83;100.00
44675;BME280;30388;52.038;-1.478;2023-03-24T02:16:22;65105.12;;;4.37;100.00
44675;BME280;30388;52.038;-1.478;2023-03-24T02:19:07;65159.29;;;4.84;100.00
44675;BME280;30388;52.038;-1.478;2023-03-24T02:21:58;65210.56;;;5.27;100.00
44675;BME280;30388;52.038;-1.478;2023-03-24T02:24:54;65215.37;;;5.33;100.00
44675;BME280;30388;52.038;-1.478;2023-03-24T02:28:08;65203.07;;;5.17;100.00
44675;BME280;30388;52.038;-1.478;2023-03-24T02:30:53;65133.09;;;4.73;100.00
44675;BME280;30388;52.038;-1.478;2023-03-24T02:34:48;65142.84;;;4.84;100.00
44675;BME280;30388;52.038;-1.478;2023-03-24T02:39:48;65185.66;;;5.65;100.00
44675;BME280;30388;52.038;-1.478;2023-03-24T02:42:25;65185.23;;;4.94;100.00
44675;BME280;30388;52.038;-1.478;2023-03-24T02:45:05;65149.02;;;4.71;100.00
44675;BME280;30388;52.038;-1.478;2023-03-24T02:47:44;65199.54;;;4.85;100.00
44675;BME280;30388;52.038;-1.478;2023-03-24T02:50:20;65259.79;;;5.89;100.00
44675;BME280;30388;52.038;-1.478;2023-03-24T02:53:00;65196.79;;;5.09;100.00
44675;BME280;30388;52.038;-1.478;2023-03-24T02:55:33;65267.81;;;5.72;100.00
44675;BME280;30388;52.038;-1.478;2023-03-24T02:58:06;65292.79;;;5.82;100.00
44675;BME280;30388;52.038;-1.478;2023-03-24T03:00:41;65319.69;;;6.16;100.00
44675;BME280;30388;52.038;-1.478;2023-03-24T03:03:17;65231.33;;;5.04;100.00
44675;BME280;30388;52.038;-1.478;2023-03-24T03:05:48;65186.43;;;5.17;100.00
44675;BME280;30388;52.038;-1.478;2023-03-24T03:08:19;65189.46;;;4.99;100.00
44675;BME280;30388;52.038;-1.478;2023-03-24T03:10:49;65159.04;;;5.05;100.00
44675;BME280;30388;52.038;-1.478;2023-03-24T03:13:22;65204.81;;;4.92;100.00
44675;BME280;30388;52.038;-1.478;2023-03-24T03:15:54;65227.90;;;5.48;100.00
44675;BME280;30388;52.038;-1.478;2023-03-24T03:18:26;65217.40;;;5.34;100.00
44675;BME280;30388;52.038;-1.478;2023-03-24T03:20:58;65177.32;;;4.84;100.00
44675;BME280;30388;52.038;-1.478;2023-03-24T03:23:31;65179.36;;;5.09;100.00
44675;BME280;30388;52.038;-1.478;2023-03-24T03:26:03;65182.23;;;5.13;100.00
44675;BME280;30388;52.038;-1.478;2023-03-24T03:28:35;65220.09;;;5.38;100.00
44675;BME280;30388;52.038;-1.478;2023-03-24T03:31:08;65119.90;;;4.34;100.00
44675;BME280;30388;52.038;-1.478;2023-03-24T03:33:41;65168.29;;;4.72;100.00
44675;BME280;30388;52.038;-1.478;2023-03-24T03:36:15;65145.74;;;4.66;100.00
44675;BME280;30388;52.038;-1.478;2023-03-24T03:38:46;65195.52;;;5.07;100.00
44675;BME280;30388;52.038;-1.478;2023-03-24T03:41:18;65136.62;;;4.33;100.00
44675;BME280;30388;52.038;-1.478;2023-03-24T03:43:47;65191.67;;;4.53;100.00
44675;BME280;30388;52.038;-1.478;2023-03-24T03:46:15;65240.03;;;5.64;100.00
44675;BME280;30388;52.038;-1.478;2023-03-24T03:48:44;65322.08;;;5.92;100.00
44675;BME280;30388;52.038;-1.478;2023-03-24T03:51:12;65213.74;;;4.81;100.00
44675;BME280;30388;52.038;-1.478;2023-03-24T03:53:44;65186.59;;;4.96;100.00
44675;BME280;30388;52.038;-1.478;2023-03-24T03:56:15;65240.39;;;5.64;100.00
44675;BME280;30388;52.038;-1.478;2023-03-24T03:58:43;65236.30;;;5.10;100.00
44675;BME280;30388;52.038;-1.478;2023-03-24T04:01:12;65226.47;;;5.46;100.00
44675;BME280;30388;52.038;-1.478;2023-03-24T04:03:53;65173.83;;;4.79;100.00
44675;BME280;30388;52.038;-1.478;2023-03-24T04:06:28;65149.53;;;4.48;100.00
44675;BME280;30388;52.038;-1.478;2023-03-24T04:09:07;65228.75;;;5.00;100.00
44675;BME280;30388;52.038;-1.478;2023-03-24T04:11:45;65185.61;;;4.94;100.00
44675;BME280;30388;52.038;-1.478;2023-03-24T04:14:31;65206.78;;;5.21;100.00
44675;BME280;30388;52.038;-1.478;2023-03-24T04:17:06;65218.29;;;5.10;100.00
44675;BME280;30388;52.038;-1.478;2023-03-24T04:19:45;65166.91;;;4.71;100.00
44675;BME280;30388;52.038;-1.478;2023-03-24T04:22:24;65198.26;;;5.10;100.00
44675;BME280;30388;52.038;-1.478;2023-03-24T04:24:55;65203.91;;;5.18;100.00
44675;BME280;30388;52.038;-1.478;2023-03-24T04:27:35;65097.14;;;4.27;100.00
44675;BME280;30388;52.038;-1.478;2023-03-24T04:30:10;65106.13;;;3.93;100.00
44675;BME280;30388;52.038;-1.478;2023-03-24T04:32:44;65101.52;;;4.33;100.00
44675;BME280;30388;52.038;-1.478;2023-03-24T04:35:17;65015.38;;;3.71;100.00
44675;BME280;30388;52.038;-1.478;2023-03-24T04:37:46;65010.65;;;3.66;100.00
44675;BME280;30388;52.038;-1.478;2023-03-24T04:40:16;65035.02;;;3.47;100.00
44675;BME280;30388;52.038;-1.478;2023-03-24T04:42:47;65098.46;;;4.28;100.00
44675;BME280;30388;52.038;-1.478;2023-03-24T04:45:15;65083.95;;;4.10;100.00
44675;BME280;30388;52.038;-1.478;2023-03-24T04:47:46;65054.94;;;3.73;100.00
44675;BME280;30388;52.038;-1.478;2023-03-24T04:50:27;65092.07;;;4.20;100.00
44675;BME280;30388;52.038;-1.478;2023-03-24T04:52:55;65087.41;;;3.92;100.00
44675;BME280;30388;52.038;-1.478;2023-03-24T04:57:35;65116.77;;;4.78;100.00
44675;BME280;30388;52.038;-1.478;2023-03-24T05:00:02;65085.31;;;3.90;100.00
44675;BME280;30388;52.038;-1.478;2023-03-24T05:02:29;64997.80;;;3.27;100.00
44675;BME280;30388;52.038;-1.478;2023-03-24T05:04:56;65084.28;;;4.10;100.00
44675;BME280;30388;52.038;-1.478;2023-03-24T05:07:25;65170.26;;;4.97;100.00
44675;BME280;30388;52.038;-1.478;2023-03-24T05:09:52;65158.56;;;4.61;100.00
44675;BME280;30388;52.038;-1.478;2023-03-24T05:12:19;65127.97;;;4.22;100.00
44675;BME280;30388;52.038;-1.478;2023-03-24T05:14:47;65131.75;;;4.48;100.00
44675;BME280;30388;52.038;-1.478;2023-03-24T05:17:14;65139.07;;;4.59;100.00
44675;BME280;30388;52.038;-1.478;2023-03-24T05:19:41;65117.50;;;4.53;100.00
44675;BME280;30388;52.038;-1.478;2023-03-24T05:22:09;65030.18;;;3.41;100.00
44675;BME280;30388;52.038;-1.478;2023-03-24T05:24:36;65098.39;;;4.07;100.00
44675;BME280;30388;52.038;-1.478;2023-03-24T05:27:03;65020.32;;;3.77;100.00
44675;BME280;30388;52.038;-1.478;2023-03-24T05:29:31;65033.53;;;3.45;100.00
44675;BME280;30388;52.038;-1.478;2023-03-24T05:31:59;65041.28;;;3.56;100.00
44675;BME280;30388;52.038;-1.478;2023-03-24T05:34:26;65055.89;;;3.75;100.00
44675;BME280;30388;52.038;-1.478;2023-03-24T05:36:53;65057.16;;;3.76;100.00
44675;BME280;30388;52.038;-1.478;2023-03-24T05:39:21;65065.63;;;3.87;100.00
44675;BME280;30388;52.038;-1.478;2023-03-24T05:41:48;65080.86;;;4.05;100.00
44675;BME280;30388;52.038;-1.478;2023-03-24T05:44:16;65072.15;;;3.95;100.00
44675;BME280;30388;52.038;-1.478;2023-03-24T05:46:43;65011.53;;;3.66;100.00
44675;BME280;30388;52.038;-1.478;2023-03-24T05:49:10;65012.21;;;3.19;100.00
44675;BME280;30388;52.038;-1.478;2023-03-24T05:51:38;65083.63;;;4.10;100.00
44675;BME280;30388;52.038;-1.478;2023-03-24T05:54:10;65018.94;;;3.76;100.00
44675;BME280;30388;52.038;-1.478;2023-03-24T05:56:37;65022.90;;;3.59;100.00
44675;BME280;30388;52.038;-1.478;2023-03-24T05:59:05;65000.17;;;3.52;100.00
44675;BME280;30388;52.038;-1.478;2023-03-24T06:01:33;65007.77;;;3.14;100.00
44675;BME280;30388;52.038;-1.478;2023-03-24T06:04:00;65019.33;;;3.77;100.00
44675;BME280;30388;52.038;-1.478;2023-03-24T06:06:28;64988.54;;;3.59;100.00
44675;BME280;30388;52.038;-1.478;2023-03-24T06:08:55;64973.17;;;3.40;100.00
44675;BME280;30388;52.038;-1.478;2023-03-24T06:11:22;64988.93;;;3.15;100.00
44675;BME280;30388;52.038;-1.478;2023-03-24T06:13:50;64950.23;;;3.11;100.00
44675;BME280;30388;52.038;-1.478;2023-03-24T06:16:17;64968.26;;;3.12;100.00
44675;BME280;30388;52.038;-1.478;2023-03-24T06:18:44;64996.36;;;3.47;100.00
44675;BME280;30388;52.038;-1.478;2023-03-24T06:21:12;65004.75;;;3.58;100.00
44675;BME280;30388;52.038;-1.478;2023-03-24T06:23:39;64975.28;;;3.21;100.00
44675;BME280;30388;52.038;-1.478;2023-03-24T06:26:09;65002.57;;;3.55;100.00
44675;BME280;30388;52.038;-1.478;2023-03-24T06:28:36;65035.61;;;3.75;100.00
44675;BME280;30388;52.038;-1.478;2023-03-24T06:31:04;65014.07;;;3.48;100.00
44675;BME280;30388;52.038;-1.478;2023-03-24T06:33:31;65018.26;;;3.75;100.00
44675;BME280;30388;52.038;-1.478;2023-03-24T06:35:58;65002.44;;;3.56;100.00
44675;BME280;30388;52.038;-1.478;2023-03-24T06:38:26;65020.62;;;3.78;100.00
44675;BME280;30388;52.038;-1.478;2023-03-24T06:40:53;65026.26;;;3.86;100.00
44675;BME280;30388;52.038;-1.478;2023-03-24T06:43:20;65038.35;;;3.78;100.00
44675;BME280;30388;52.038;-1.478;2023-03-24T06:45:48;65043.91;;;4.07;100.00
44675;BME280;30388;52.038;-1.478;2023-03-24T06:48:15;65065.54;;;4.37;100.00
44675;BME280;30388;52.038;-1.478;2023-03-24T06:50:42;65092.35;;;4.47;100.00
44675;BME280;30388;52.038;-1.478;2023-03-24T06:53:10;65057.27;;;4.03;100.00
44675;BME280;30388;52.038;-1.478;2023-03-24T06:55:37;65080.46;;;4.32;100.00
44675;BME280;30388;52.038;-1.478;2023-03-24T06:58:05;65124.06;;;4.89;100.00
44675;BME280;30388;52.038;-1.478;2023-03-24T07:00:32;65075.98;;;4.27;100.00
44675;BME280;30388;52.038;-1.478;2023-03-24T07:02:59;65072.42;;;4.44;100.00
44675;BME280;30388;52.038;-1.478;2023-03-24T07:05:26;65074.69;;;3.99;100.00
44675;BME280;30388;52.038;-1.478;2023-03-24T07:07:54;65092.08;;;4.47;100.00
44675;BME280;30388;52.038;-1.478;2023-03-24T07:10:21;65097.08;;;4.54;100.00
44675;BME280;30388;52.038;-1.478;2023-03-24T07:12:48;65096.15;;;4.26;100.00
44675;BME280;30388;52.038;-1.478;2023-03-24T07:15:16;65136.21;;;4.78;100.00
44675;BME280;30388;52.038;-1.478;2023-03-24T07:17:43;65157.14;;;5.04;100.00
44675;BME280;30388;52.038;-1.478;2023-03-24T07:20:10;65193.26;;;5.28;100.00
44675;BME280;30388;52.038;-1.478;2023-03-24T07:22:37;65201.06;;;5.37;100.00
44675;BME280;30388;52.038;-1.478;2023-03-24T07:25:05;65158.68;;;4.83;100.00
44675;BME280;30388;52.038;-1.478;2023-03-24T07:27:34;65207.51;;;5.23;100.00
44675;BME280;30388;52.038;-1.478;2023-03-24T07:30:01;65236.51;;;5.60;100.00
44675;BME280;30388;52.038;-1.478;2023-03-24T07:32:34;65214.81;;;5.77;100.00
44675;BME280;30388;52.038;-1.478;2023-03-24T07:35:02;65262.43;;;5.93;100.00
44675;BME280;30388;52.038;-1.478;2023-03-24T07:37:29;65244.42;;;5.70;100.00
44675;BME280;30388;52.038;-1.478;2023-03-24T07:39:56;65275.42;;;6.09;100.00
44675;BME280;30388;52.038;-1.478;2023-03-24T07:42:23;65266.02;;;5.97;100.00
44675;BME280;30388;52.038;-1.478;2023-03-24T07:44:51;65316.53;;;6.12;100.00
44675;BME280;30388;52.038;-1.478;2023-03-24T07:47:18;65261.86;;;5.92;100.00
44675;BME280;30388;52.038;-1.478;2023-03-24T07:49:46;65231.88;;;5.76;100.00
44675;BME280;30388;52.038;-1.478;2023-03-24T07:52:13;65238.46;;;5.85;100.00
44675;BME280;30388;52.038;-1.478;2023-03-24T07:54:40;65298.71;;;6.12;100.00
44675;BME280;30388;52.038;-1.478;2023-03-24T07:57:07;65282.47;;;5.69;100.00
44675;BME280;30388;52.038;-1.478;2023-03-24T07:59:35;65285.81;;;5.96;100.00
44675;BME280;30388;52.038;-1.478;2023-03-24T08:02:02;65262.21;;;5.92;100.00
44675;BME280;30388;52.038;-1.478;2023-03-24T08:04:29;65256.94;;;6.07;100.00
44675;BME280;30388;52.038;-1.478;2023-03-24T08:06:56;65261.51;;;5.92;100.00
44675;BME280;30388;52.038;-1.478;2023-03-24T08:09:24;65307.79;;;6.23;100.00
44675;BME280;30388;52.038;-1.478;2023-03-24T08:11:51;65336.18;;;6.38;100.00
44675;BME280;30388;52.038;-1.478;2023-03-24T08:14:18;65299.70;;;6.40;100.00
44675;BME280;30388;52.038;-1.478;2023-03-24T08:16:45;65281.21;;;5.67;100.00
44675;BME280;30388;52.038;-1.478;2023-03-24T08:19:12;65268.80;;;6.23;100.00
44675;BME280;30388;52.038;-1.478;2023-03-24T08:21:40;65280.10;;;6.15;100.00
44675;BME280;30388;52.038;-1.478;2023-03-24T08:24:07;65264.46;;;6.39;100.00
44675;BME280;30388;52.038;-1.478;2023-03-24T08:26:34;65279.28;;;6.14;100.00
44675;BME280;30388;52.038;-1.478;2023-03-24T08:29:02;65307.54;;;6.23;100.00
44675;BME280;30388;52.038;-1.478;2023-03-24T08:31:31;65313.03;;;6.57;100.00
44675;BME280;30388;52.038;-1.478;2023-03-24T08:33:58;65308.99;;;6.52;100.00
44675;BME280;30388;52.038;-1.478;2023-03-24T08:36:25;65315.74;;;6.61;100.00
44675;BME280;30388;52.038;-1.478;2023-03-24T08:38:53;65302.08;;;6.65;100.00
44675;BME280;30388;52.038;-1.478;2023-03-24T08:41:22;65341.70;;;6.45;100.00
44675;BME280;30388;52.038;-1.478;2023-03-24T08:43:49;65360.57;;;6.91;100.00
44675;BME280;30388;52.038;-1.478;2023-03-24T08:46:16;65288.46;;;6.26;100.00
44675;BME280;30388;52.038;-1.478;2023-03-24T08:48:43;65335.92;;;6.86;100.00
44675;BME280;30388;52.038;-1.478;2023-03-24T08:51:11;65384.09;;;6.99;100.00
44675;BME280;30388;52.038;-1.478;2023-03-24T08:53:38;65363.02;;;6.94;100.00
44675;BME280;30388;52.038;-1.478;2023-03-24T08:56:06;65360.42;;;6.90;100.00
44675;BME280;30388;52.038;-1.478;2023-03-24T08:58:34;65350.65;;;7.05;100.00
44675;BME280;30388;52.038;-1.478;2023-03-24T09:01:01;65388.74;;;7.04;100.00
44675;BME280;30388;52.038;-1.478;2023-03-24T09:03:28;65423.95;;;7.49;100.00
44675;BME280;30388;52.038;-1.478;2023-03-24T09:05:55;65468.42;;;7.79;100.00
44675;BME280;30388;52.038;-1.478;2023-03-24T09:08:23;65479.50;;;7.92;100.00
44675;BME280;30388;52.038;-1.478;2023-03-24T09:10:50;65458.76;;;7.92;100.00
44675;BME280;30388;52.038;-1.478;2023-03-24T09:13:18;65481.08;;;7.96;100.00
44675;BME280;30388;52.038;-1.478;2023-03-24T09:15:47;65500.62;;;8.20;100.00
44675;BME280;30388;52.038;-1.478;2023-03-24T09:18:14;65488.52;;;8.04;100.00
44675;BME280;30388;52.038;-1.478;2023-03-24T09:20:41;65531.66;;;8.36;100.00
44675;BME280;30388;52.038;-1.478;2023-03-24T09:23:08;65561.46;;;8.74;100.00
44675;BME280;30388;52.038;-1.478;2023-03-24T09:25:35;65553.36;;;8.64;100.00
44675;BME280;30388;52.038;-1.478;2023-03-24T09:28:03;65511.17;;;8.10;100.00
44675;BME280;30388;52.038;-1.478;2023-03-24T09:30:31;65564.62;;;8.78;100.00
44675;BME280;30388;52.038;-1.478;2023-03-24T09:32:58;65600.91;;;8.75;100.00
44675;BME280;30388;52.038;-1.478;2023-03-24T09:35:25;65613.13;;;8.91;100.00
44675;BME280;30388;52.038;-1.478;2023-03-24T09:37:55;65633.43;;;9.16;100.00
44675;BME280;30388;52.038;-1.478;2023-03-24T09:40:25;65644.09;;;9.29;100.00
44675;BME280;30388;52.038;-1.478;2023-03-24T09:42:56;65601.53;;;9.02;100.00
44675;BME280;30388;52.038;-1.478;2023-03-24T09:45:31;65623.41;;;9.03;100.00
44675;BME280;30388;52.038;-1.478;2023-03-24T09:48:05;65625.96;;;9.34;100.00
44675;BME280;30388;52.038;-1.478;2023-03-24T09:50:39;65626.47;;;9.34;100.00
44675;BME280;30388;52.038;-1.478;2023-03-24T09:53:17;65664.21;;;9.55;100.00
44675;BME280;30388;52.038;-1.478;2023-03-24T09:55:49;65714.01;;;9.74;100.00
44675;BME280;30388;52.038;-1.478;2023-03-24T09:58:17;65674.35;;;9.46;100.00
44675;BME280;30388;52.038;-1.478;2023-03-24T10:00:46;65674.60;;;9.68;100.00
44675;BME280;30388;52.038;-1.478;2023-03-24T10:03:18;65646.59;;;9.60;100.00
44675;BME280;30388;52.038;-1.478;2023-03-24T10:05:49;65617.22;;;9.22;100.00
44675;BME280;30388;52.038;-1.478;2023-03-24T10:08:23;65607.27;;;8.83;100.00
44675;BME280;30388;52.038;-1.478;2023-03-24T10:10:58;65695.43;;;9.94;100.00
44675;BME280;30388;52.038;-1.478;2023-03-24T10:13:34;65693.98;;;10.42;100.00
44675;BME280;30388;52.038;-1.478;2023-03-24T10:16:09;65627.33;;;9.35;100.00
44675;BME280;30388;52.038;-1.478;2023-03-24T10:18:43;65667.26;;;9.59;100.00
44675;BME280;30388;52.038;-1.478;2023-03-24T10:21:18;65738.71;;;10.05;100.00
44675;BME280;30388;52.038;-1.478;2023-03-24T10:23:51;65846.13;;;10.92;100.00
44675;BME280;30388;52.038;-1.478;2023-03-24T10:26:30;65789.71;;;10.69;100.00
44675;BME280;30388;52.038;-1.478;2023-03-24T10:29:20;65793.98;;;10.48;100.00
44675;BME280;30388;52.038;-1.478;2023-03-24T10:31:52;65808.65;;;10.44;100.00
44675;BME280;30388;52.038;-1.478;2023-03-24T10:34:21;65700.45;;;10.01;100.00
44675;BME280;30388;52.038;-1.478;2023-03-24T10:37:02;65707.80;;;9.66;100.00
44675;BME280;30388;52.038;-1.478;2023-03-24T10:39:31;65677.51;;;9.27;100.00
44675;BME280;30388;52.038;-1.478;2023-03-24T10:42:00;65672.20;;;9.42;100.00
44675;BME280;30388;52.038;-1.478;2023-03-24T10:44:27;65661.97;;;9.08;100.00
44675;BME280;30388;52.038;-1.478;2023-03-24T10:46:58;65725.41;;;9.88;100.00
44675;BME280;30388;52.038;-1.478;2023-03-24T10:49:28;65815.56;;;11.02;100.00
44675;BME280;30388;52.038;-1.478;2023-03-24T10:52:00;65804.86;;;10.89;100.00
44675;BME280;30388;52.038;-1.478;2023-03-24T10:54:29;65901.64;;;11.61;100.00
44675;BME280;30388;52.038;-1.478;2023-03-24T10:57:04;65985.02;;;12.18;100.00
44675;BME280;30388;52.038;-1.478;2023-03-24T10:59:55;65949.64;;;12.23;100.00
44675;BME280;30388;52.038;-1.478;2023-03-24T11:02:25;65975.18;;;12.54;100.00
44675;BME280;30388;52.038;-1.478;2023-03-24T11:04:56;65913.04;;;11.76;100.00
44675;BME280;30388;52.038;-1.478;2023-03-24T11:07:29;65957.76;;;12.33;100.00
44675;BME280;30388;52.038;-1.478;2023-03-24T11:10:04;65907.55;;;11.69;100.00
44675;BME280;30388;52.038;-1.478;2023-03-24T11:12:34;65881.40;;;11.85;100.00
44675;BME280;30388;52.038;-1.478;2023-03-24T11:15:15;65980.35;;;12.34;100.00
44675;BME280;30388;52.038;-1.478;2023-03-24T11:17:45;66047.93;;;12.97;100.00
44675;BME280;30388;52.038;-1.478;2023-03-24T11:20:16;66004.74;;;12.42;100.00
44675;BME280;30388;52.038;-1.478;2023-03-24T11:22:55;66049.22;;;12.99;100.00
44675;BME280;30388;52.038;-1.478;2023-03-24T11:25:26;66091.44;;;13.52;100.00
44675;BME280;30388;52.038;-1.478;2023-03-24T11:27:58;66101.52;;;13.65;100.00
44675;BME280;30388;52.038;-1.478;2023-03-24T11:30:28;66033.60;;;13.01;100.00
44675;BME280;30388;52.038;-1.478;2023-03-24T11:32:59;66113.80;;;13.59;100.00
44675;BME280;30388;52.038;-1.478;2023-03-24T11:35:28;65952.08;;;11.99;100.00
44675;BME280;30388;52.038;-1.478;2023-03-24T11:37:55;65921.58;;;11.61;100.00
44675;BME280;30388;52.038;-1.478;2023-03-24T11:40:24;65953.23;;;11.78;100.00
44675;BME280;30388;52.038;-1.478;2023-03-24T11:42:56;65945.87;;;11.91;100.00
44675;BME280;30388;52.038;-1.478;2023-03-24T11:45:28;65827.91;;;10.90;100.00
44675;BME280;30388;52.038;-1.478;2023-03-24T11:48:02;65755.29;;;9.99;100.00
44675;BME280;30388;52.038;-1.478;2023-03-24T11:50:33;65791.69;;;10.45;100.00
44675;BME280;30388;52.038;-1.478;2023-03-24T11:53:04;65766.74;;;9.91;100.00
44675;BME280;30388;52.038;-1.478;2023-03-24T11:55:36;65753.05;;;10.23;100.00
44675;BME280;30388;52.038;-1.478;2023-03-24T11:58:11;65719.18;;;9.80;100.00
44675;BME280;30388;52.038;-1.478;2023-03-24T12:00:47;65571.28;;;8.37;100.00
44675;BME280;30388;52.038;-1.478;2023-03-24T12:04:30;65391.96;;;7.57;100.00
44675;BME280;30388;52.038;-1.478;2023-03-24T12:07:22;65328.83;;;6.28;100.00
44675;BME280;30388;52.038;-1.478;2023-03-24T12:09:58;65282.34;;;6.18;100.00
44675;BME280;30388;52.038;-1.478;2023-03-24T12:12:35;65209.45;;;4.98;100.00
44675;BME280;30388;52.038;-1.478;2023-03-24T12:15:19;65312.48;;;6.29;100.00
44675;BME280;30388;52.038;-1.478;2023-03-24T12:17:56;65300.76;;;6.14;100.00
44675;BME280;30388;52.038;-1.478;2023-03-24T12:20:30;65239.60;;;5.85;100.00
44675;BME280;30388;52.038;-1.478;2023-03-24T12:23:00;65382.51;;;7.18;100.00
44675;BME280;30388;52.038;-1.478;2023-03-24T12:25:44;65514.00;;;8.35;100.00
44675;BME280;30388;52.038;-1.478;2023-03-24T12:28:28;65625.80;;;9.06;100.00
44675;BME280;30388;52.038;-1.478;2023-03-24T12:31:11;65696.52;;;9.96;100.00
44675;BME280;30388;52.038;-1.478;2023-03-24T12:33:50;65738.62;;;10.27;100.00
44675;BME280;30388;52.038;-1.478;2023-03-24T12:36:35;65792.84;;;10.73;100.00
44675;BME280;30388;52.038;-1.478;2023-03-24T12:39:09;65845.21;;;10.91;100.00
44675;BME280;30388;52.038;-1.478;2023-03-24T12:41:49;65896.10;;;11.55;100.00
44675;BME280;30388;52.038;-1.478;2023-03-24T12:45:32;65903.28;;;11.64;100.00
44675;BME280;30388;52.038;-1.478;2023-03-24T12:48:19;65913.31;;;11.50;100.00
44675;BME280;30388;52.038;-1.478;2023-03-24T12:51:01;65960.71;;;12.36;100.00
44675;BME280;30388;52.038;-1.478;2023-03-24T12:53:46;65994.03;;;12.30;100.00
44675;BME280;30388;52.038;-1.478;2023-03-24T12:56:20;66041.24;;;12.89;100.00
44675;BME280;30388;52.038;-1.478;2023-03-24T12:58:52;65947.73;;;11.93;100.00
44675;BME280;30388;52.038;-1.478;2023-03-24T13:01:26;66055.79;;;12.84;100.00
44675;BME280;30388;52.038;-1.478;2023-03-24T13:04:00;66005.80;;;12.44;100.00
44675;BME280;30388;52.038;-1.478;2023-03-24T13:06:36;65991.13;;;12.48;100.00
44675;BME280;30388;52.038;-1.478;2023-03-24T13:09:12;65983.80;;;12.65;100.00
44675;BME280;30388;52.038;-1.478;2023-03-24T13:11:47;66008.04;;;12.69;100.00
44675;BME280;30388;52.038;-1.478;2023-03-24T13:14:20;65935.40;;;12.04;100.00